sensor_id;sensor_type;location;lat;lon;timestamp;pressure;altitude;pressure_sealevel;temperature;humidity
78073;BME280;67281;48.770;11.440;2023-04-15T00:01:11;96155.19;;;16.47;41.90
78073;BME280;67281;48.770;11.440;2023-04-15T00:03:44;96152.53;;;16.47;41.67
78073;BME280;67281;48.770;11.440;2023-04-15T00:06:12;96145.59;;;16.46;42.17
78073;BME280;67281;48.770;11.440;2023-04-15T00:08:39;96143.94;;;16.44;41.85
78073;BME280;67281;48.770;11.440;2023-04-15T00:11:05;96143.94;;;16.44;41.87
78073;BME280;67281;48.770;11.440;2023-04-15T00:13:32;96151.88;;;16.44;41.62
78073;BME280;67281;48.770;11.440;2023-04-15T00:16:02;96152.72;;;16.45;41.42
78073;BME280;67281;48.770;11.440;2023-04-15T00:18:28;96145.78;;;16.44;42.14
78073;BME280;67281;48.770;11.440;2023-04-15T00:20:55;96142.13;;;16.45;42.00
78073;BME280;67281;48.770;11.440;2023-04-15T00:23:22;96138.66;;;16.44;41.59
78073;BME280;67281;48.770;11.440;2023-04-15T00:25:49;96142.94;;;16.46;41.92
78073;BME280;67281;48.770;11.440;2023-04-15T00:28:16;96133.38;;;16.44;41.90
78073;BME280;67281;48.770;11.440;2023-04-15T00:30:44;96133.53;;;16.43;42.12
78073;BME280;67281;48.770;11.440;2023-04-15T00:33:12;96130.06;;;16.42;41.81
78073;BME280;67281;48.770;11.440;2023-04-15T00:35:39;96123.78;;;16.43;41.80
78073;BME280;67281;48.770;11.440;2023-04-15T00:38:06;96127.44;;;16.42;41.63
78073;BME280;67281;48.770;11.440;2023-04-15T00:40:36;96120.31;;;16.43;41.45
78073;BME280;67281;48.770;11.440;2023-04-15T00:43:03;96115.38;;;16.40;41.66
78073;BME280;67281;48.770;11.440;2023-04-15T00:45:30;96115.56;;;16.38;41.51
78073;BME280;67281;48.770;11.440;2023-04-15T00:47:57;96112.25;;;16.36;42.08
78073;BME280;67281;48.770;11.440;2023-04-15T00:50:24;96106.97;;;16.36;41.86
78073;BME280;67281;48.770;11.440;2023-04-15T00:52:51;96096.38;;;16.36;41.81
78073;BME280;67281;48.770;11.440;2023-04-15T00:55:18;96094.75;;;16.35;41.69
78073;BME280;67281;48.770;11.440;2023-04-15T00:57:45;96104.31;;;16.36;41.59
78073;BME280;67281;48.770;11.440;2023-04-15T01:00:12;96105.31;;;16.35;41.82
78073;BME280;67281;48.770;11.440;2023-04-15T01:02:39;96104.31;;;16.36;41.85
78073;BME280;67281;48.770;11.440;2023-04-15T01:05:06;96099.03;;;16.36;41.67
78073;BME280;67281;48.770;11.440;2023-04-15T01:07:34;96105.31;;;16.35;41.70
78073;BME280;67281;48.770;11.440;2023-04-15T01:10:02;96106.31;;;16.34;41.84
78073;BME280;67281;48.770;11.440;2023-04-15T01:12:31;96107.34;;;16.33;41.60
78073;BME280;67281;48.770;11.440;2023-04-15T01:14:58;96114.44;;;16.33;42.17
78073;BME280;67281;48.770;11.440;2023-04-15T01:17:25;96113.44;;;16.34;41.55
78073;BME280;67281;48.770;11.440;2023-04-15T01:19:54;96103.88;;;16.33;41.79
78073;BME280;67281;48.770;11.440;2023-04-15T01:22:23;96100.41;;;16.32;41.88
78073;BME280;67281;48.770;11.440;2023-04-15T01:25:10;96104.88;;;16.32;41.75
78073;BME280;67281;48.770;11.440;2023-04-15T01:27:38;96104.03;;;16.31;41.89
78073;BME280;67281;48.770;11.440;2023-04-15T01:30:07;96096.28;;;16.30;41.57
78073;BME280;67281;48.770;11.440;2023-04-15T01:32:34;96091.81;;;16.30;41.79
78073;BME280;67281;48.770;11.440;2023-04-15T01:35:01;96087.34;;;16.31;41.50
78073;BME280;67281;48.770;11.440;2023-04-15T01:37:28;96088.34;;;16.30;41.80
78073;BME280;67281;48.770;11.440;2023-04-15T01:39:56;96091.81;;;16.30;41.57
78073;BME280;67281;48.770;11.440;2023-04-15T01:42:23;96091.81;;;16.30;41.45
78073;BME280;67281;48.770;11.440;2023-04-15T01:44:50;96083.88;;;16.30;41.60
78073;BME280;67281;48.770;11.440;2023-04-15T01:47:17;96092.81;;;16.29;41.68
78073;BME280;67281;48.770;11.440;2023-04-15T01:49:44;96086.88;;;16.27;42.14
78073;BME280;67281;48.770;11.440;2023-04-15T01:52:11;96090.50;;;16.26;42.17
78073;BME280;67281;48.770;11.440;2023-04-15T01:54:37;96100.75;;;16.29;41.61
78073;BME280;67281;48.770;11.440;2023-04-15T01:57:04;96100.91;;;16.28;41.77
78073;BME280;67281;48.770;11.440;2023-04-15T01:59:31;96100.91;;;16.28;41.75
78073;BME280;67281;48.770;11.440;2023-04-15T02:01:58;96108.03;;;16.27;42.05
78073;BME280;67281;48.770;11.440;2023-04-15T02:04:25;96105.38;;;16.27;41.54
78073;BME280;67281;48.770;11.440;2023-04-15T02:06:53;96113.47;;;16.26;41.98
78073;BME280;67281;48.770;11.440;2023-04-15T02:09:20;96116.94;;;16.26;41.48
78073;BME280;67281;48.770;11.440;2023-04-15T02:11:47;96115.94;;;16.27;42.09
78073;BME280;67281;48.770;11.440;2023-04-15T02:14:13;96109.19;;;16.25;42.16
78073;BME280;67281;48.770;11.440;2023-04-15T02:16:40;96104.88;;;16.24;41.54
78073;BME280;67281;48.770;11.440;2023-04-15T02:19:07;96108.69;;;16.21;41.70
78073;BME280;67281;48.770;11.440;2023-04-15T02:21:34;96110.53;;;16.21;41.45
78073;BME280;67281;48.770;11.440;2023-04-15T02:24:01;96118.28;;;16.22;41.53
78073;BME280;67281;48.770;11.440;2023-04-15T02:26:28;96113.97;;;16.21;41.61
78073;BME280;67281;48.770;11.440;2023-04-15T02:28:58;96118.09;;;16.24;41.96
78073;BME280;67281;48.770;11.440;2023-04-15T02:31:25;96114.16;;;16.20;42.09
78073;BME280;67281;48.770;11.440;2023-04-15T02:33:52;96121.25;;;16.19;41.79
78073;BME280;67281;48.770;11.440;2023-04-15T02:36:19;96116.63;;;16.21;41.88
78073;BME280;67281;48.770;11.440;2023-04-15T02:38:46;96115.81;;;16.21;41.47
78073;BME280;67281;48.770;11.440;2023-04-15T02:41:13;96117.63;;;16.20;41.60
78073;BME280;67281;48.770;11.440;2023-04-15T02:43:40;96118.63;;;16.19;41.90
78073;BME280;67281;48.770;11.440;2023-04-15T02:46:07;96118.63;;;16.19;42.14
78073;BME280;67281;48.770;11.440;2023-04-15T02:48:34;96111.03;;;16.16;41.99
78073;BME280;67281;48.770;11.440;2023-04-15T02:51:18;96104.91;;;16.16;41.83
78073;BME280;67281;48.770;11.440;2023-04-15T02:53:46;96104.91;;;16.16;41.72
78073;BME280;67281;48.770;11.440;2023-04-15T02:56:14;96101.78;;;16.12;41.95
78073;BME280;67281;48.770;11.440;2023-04-15T02:58:44;96108.06;;;16.11;41.96
78073;BME280;67281;48.770;11.440;2023-04-15T03:01:11;96105.44;;;16.11;42.15
78073;BME280;67281;48.770;11.440;2023-04-15T03:03:38;96110.22;;;16.07;41.84
78073;BME280;67281;48.770;11.440;2023-04-15T03:06:05;96108.75;;;16.05;42.16
78073;BME280;67281;48.770;11.440;2023-04-15T03:08:32;96103.47;;;16.05;42.04
78073;BME280;67281;48.770;11.440;2023-04-15T03:10:58;96101.97;;;16.02;41.66
78073;BME280;67281;48.770;11.440;2023-04-15T03:13:26;96108.44;;;16.00;41.78
78073;BME280;67281;48.770;11.440;2023-04-15T03:15:53;96103.78;;;16.02;41.84
78073;BME280;67281;48.770;11.440;2023-04-15T03:18:20;96104.47;;;16.04;42.08
78073;BME280;67281;48.770;11.440;2023-04-15T03:20:47;96108.09;;;16.03;42.25
78073;BME280;67281;48.770;11.440;2023-04-15T03:23:13;96105.44;;;16.03;42.19
78073;BME280;67281;48.770;11.440;2023-04-15T03:25:40;96107.94;;;15.96;41.65
78073;BME280;67281;48.770;11.440;2023-04-15T03:28:07;96107.78;;;15.98;42.17
78073;BME280;67281;48.770;11.440;2023-04-15T03:30:34;96109.59;;;15.97;41.51
78073;BME280;67281;48.770;11.440;2023-04-15T03:33:01;96110.41;;;15.98;41.63
78073;BME280;67281;48.770;11.440;2023-04-15T03:35:28;96110.25;;;15.99;41.73
78073;BME280;67281;48.770;11.440;2023-04-15T03:37:55;96116.53;;;15.98;42.09
78073;BME280;67281;48.770;11.440;2023-04-15T03:40:21;96102.50;;;15.98;42.10
78073;BME280;67281;48.770;11.440;2023-04-15T03:42:48;96096.38;;;15.97;42.08
78073;BME280;67281;48.770;11.440;2023-04-15T03:45:15;96108.94;;;15.87;42.08
78073;BME280;67281;48.770;11.440;2023-04-15T03:47:42;96115.22;;;15.86;42.02
78073;BME280;67281;48.770;11.440;2023-04-15T03:50:09;96110.94;;;15.85;41.56
78073;BME280;67281;48.770;11.440;2023-04-15T03:52:36;96110.28;;;15.83;42.23
78073;BME280;67281;48.770;11.440;2023-04-15T03:55:03;96111.75;;;15.86;41.74
78073;BME280;67281;48.770;11.440;2023-04-15T03:57:30;96109.78;;;15.88;41.81
78073;BME280;67281;48.770;11.440;2023-04-15T03:59:57;96107.63;;;15.83;41.85
78073;BME280;67281;48.770;11.440;2023-04-15T04:02:24;96109.28;;;15.84;42.10
78073;BME280;67281;48.770;11.440;2023-04-15T04:04:51;96111.28;;;15.82;42.00
78073;BME280;67281;48.770;11.440;2023-04-15T04:07:18;96108.28;;;15.85;41.72
78073;BME280;67281;48.770;11.440;2023-04-15T04:09:45;96114.06;;;15.81;42.22
78073;BME280;67281;48.770;11.440;2023-04-15T04:12:13;96108.63;;;15.82;42.03
78073;BME280;67281;48.770;11.440;2023-04-15T04:14:39;96104.16;;;15.83;42.19
78073;BME280;67281;48.770;11.440;2023-04-15T04:17:06;96110.28;;;15.83;41.72
78073;BME280;67281;48.770;11.440;2023-04-15T04:19:34;96111.28;;;15.82;41.46
78073;BME280;67281;48.770;11.440;2023-04-15T04:22:01;96110.28;;;15.83;42.19
78073;BME280;67281;48.770;11.440;2023-04-15T04:24:27;96115.06;;;15.80;41.60
78073;BME280;67281;48.770;11.440;2023-04-15T04:26:54;96118.53;;;15.80;41.75
78073;BME280;67281;48.770;11.440;2023-04-15T04:29:23;96118.19;;;15.83;41.95
78073;BME280;67281;48.770;11.440;2023-04-15T04:31:49;96114.72;;;15.83;42.17
78073;BME280;67281;48.770;11.440;2023-04-15T04:34:16;96112.25;;;15.81;41.80
78073;BME280;67281;48.770;11.440;2023-04-15T04:36:43;96119.34;;;15.81;42.14
78073;BME280;67281;48.770;11.440;2023-04-15T04:39:10;96122.00;;;15.81;41.94
78073;BME280;67281;48.770;11.440;2023-04-15T04:41:37;96117.22;;;15.84;41.73
78073;BME280;67281;48.770;11.440;2023-04-15T04:44:03;96123.16;;;15.86;41.93
78073;BME280;67281;48.770;11.440;2023-04-15T04:46:30;96132.22;;;15.84;41.94
78073;BME280;67281;48.770;11.440;2023-04-15T04:48:57;96126.28;;;15.82;42.00
78073;BME280;67281;48.770;11.440;2023-04-15T04:51:24;96129.91;;;15.81;42.06
78073;BME280;67281;48.770;11.440;2023-04-15T04:53:51;96131.75;;;15.80;41.54
78073;BME280;67281;48.770;11.440;2023-04-15T04:56:18;96132.06;;;15.77;42.16
78073;BME280;67281;48.770;11.440;2023-04-15T04:58:45;96126.97;;;15.75;41.62
78073;BME280;67281;48.770;11.440;2023-04-15T05:01:12;96126.78;;;15.77;41.52
78073;BME280;67281;48.770;11.440;2023-04-15T05:03:39;96132.06;;;15.77;42.18
78073;BME280;67281;48.770;11.440;2023-04-15T05:06:06;96130.09;;;15.79;41.48
78073;BME280;67281;48.770;11.440;2023-04-15T05:08:34;96126.63;;;15.78;41.79
78073;BME280;67281;48.770;11.440;2023-04-15T05:11:01;96127.44;;;15.79;41.42
78073;BME280;67281;48.770;11.440;2023-04-15T05:13:28;96132.06;;;15.77;41.42
78073;BME280;67281;48.770;11.440;2023-04-15T05:15:55;96127.63;;;15.77;41.48
78073;BME280;67281;48.770;11.440;2023-04-15T05:18:22;96132.91;;;15.77;42.00
78073;BME280;67281;48.770;11.440;2023-04-15T05:20:49;96131.25;;;15.76;41.77
78073;BME280;67281;48.770;11.440;2023-04-15T05:23:16;96129.59;;;15.75;41.83
78073;BME280;67281;48.770;11.440;2023-04-15T05:25:43;96138.34;;;15.76;42.00
78073;BME280;67281;48.770;11.440;2023-04-15T05:28:10;96132.91;;;15.77;41.75
78073;BME280;67281;48.770;11.440;2023-04-15T05:30:37;96134.56;;;15.78;41.31
78073;BME280;67281;48.770;11.440;2023-04-15T05:33:04;96140.16;;;15.75;41.79
78073;BME280;67281;48.770;11.440;2023-04-15T05:35:30;96139.66;;;15.72;41.83
78073;BME280;67281;48.770;11.440;2023-04-15T05:37:57;96128.94;;;15.73;41.93
78073;BME280;67281;48.770;11.440;2023-04-15T05:40:24;96134.88;;;15.75;41.61
78073;BME280;67281;48.770;11.440;2023-04-15T05:42:51;96141.50;;;15.71;41.43
78073;BME280;67281;48.770;11.440;2023-04-15T05:45:18;96130.09;;;15.71;41.77
78073;BME280;67281;48.770;11.440;2023-04-15T05:47:45;96148.59;;;15.71;41.81
78073;BME280;67281;48.770;11.440;2023-04-15T05:50:12;96138.84;;;15.71;41.64
78073;BME280;67281;48.770;11.440;2023-04-15T05:52:39;96135.53;;;15.69;42.01
78073;BME280;67281;48.770;11.440;2023-04-15T05:55:06;96141.16;;;15.66;41.61
78073;BME280;67281;48.770;11.440;2023-04-15T05:57:33;96136.53;;;15.68;41.75
78073;BME280;67281;48.770;11.440;2023-04-15T05:59:59;96141.81;;;15.68;42.15
78073;BME280;67281;48.770;11.440;2023-04-15T06:02:26;96144.13;;;15.71;41.27
78073;BME280;67281;48.770;11.440;2023-04-15T06:04:53;96136.03;;;15.73;41.81
78073;BME280;67281;48.770;11.440;2023-04-15T06:07:20;96140.50;;;15.72;41.81
78073;BME280;67281;48.770;11.440;2023-04-15T06:09:47;96143.78;;;15.74;41.98
78073;BME280;67281;48.770;11.440;2023-04-15T06:12:14;96140.81;;;15.77;41.77
78073;BME280;67281;48.770;11.440;2023-04-15T06:14:42;96137.53;;;15.75;41.59
78073;BME280;67281;48.770;11.440;2023-04-15T06:17:09;96134.88;;;15.75;41.41
78073;BME280;67281;48.770;11.440;2023-04-15T06:19:36;96143.63;;;15.76;41.64
78073;BME280;67281;48.770;11.440;2023-04-15T06:22:02;96145.78;;;15.81;41.89
78073;BME280;67281;48.770;11.440;2023-04-15T06:24:29;96145.13;;;15.78;41.36
78073;BME280;67281;48.770;11.440;2023-04-15T06:26:57;96146.75;;;15.80;41.30
78073;BME280;67281;48.770;11.440;2023-04-15T06:29:23;96143.97;;;15.81;41.97
78073;BME280;67281;48.770;11.440;2023-04-15T06:31:50;96150.88;;;15.82;41.77
78073;BME280;67281;48.770;11.440;2023-04-15T06:34:17;96151.72;;;15.83;41.68
78073;BME280;67281;48.770;11.440;2023-04-15T06:36:44;96147.25;;;15.83;41.52
78073;BME280;67281;48.770;11.440;2023-04-15T06:39:11;96135.69;;;15.84;41.15
78073;BME280;67281;48.770;11.440;2023-04-15T06:41:38;96142.47;;;15.87;41.59
78073;BME280;67281;48.770;11.440;2023-04-15T06:44:05;96143.28;;;15.87;41.80
78073;BME280;67281;48.770;11.440;2023-04-15T06:46:32;96148.41;;;15.89;41.79
78073;BME280;67281;48.770;11.440;2023-04-15T06:48:59;96147.41;;;15.90;41.74
78073;BME280;67281;48.770;11.440;2023-04-15T06:51:26;96150.72;;;15.92;41.35
78073;BME280;67281;48.770;11.440;2023-04-15T06:53:53;96147.41;;;15.90;41.14
78073;BME280;67281;48.770;11.440;2023-04-15T06:56:20;96145.44;;;15.92;41.44
78073;BME280;67281;48.770;11.440;2023-04-15T06:58:47;96147.41;;;15.90;41.77
78073;BME280;67281;48.770;11.440;2023-04-15T07:01:14;96135.84;;;15.91;41.19
78073;BME280;67281;48.770;11.440;2023-04-15T07:03:41;96141.13;;;15.91;41.66
78073;BME280;67281;48.770;11.440;2023-04-15T07:06:08;96142.97;;;15.90;41.38
78073;BME280;67281;48.770;11.440;2023-04-15T07:08:35;96140.31;;;15.90;41.27
78073;BME280;67281;48.770;11.440;2023-04-15T07:11:02;96147.41;;;15.90;41.41
78073;BME280;67281;48.770;11.440;2023-04-15T07:13:30;96159.63;;;15.91;41.25
78073;BME280;67281;48.770;11.440;2023-04-15T07:15:57;96147.91;;;15.93;41.04
78073;BME280;67281;48.770;11.440;2023-04-15T07:18:24;96154.19;;;15.92;41.28
78073;BME280;67281;48.770;11.440;2023-04-15T07:20:51;96156.16;;;15.90;41.33
78073;BME280;67281;48.770;11.440;2023-04-15T07:23:18;96152.38;;;15.93;41.69
78073;BME280;67281;48.770;11.440;2023-04-15T07:25:45;96150.72;;;15.92;41.83
78073;BME280;67281;48.770;11.440;2023-04-15T07:28:12;96152.38;;;15.93;41.57
78073;BME280;67281;48.770;11.440;2023-04-15T07:30:39;96143.44;;;15.94;41.29
78073;BME280;67281;48.770;11.440;2023-04-15T07:33:07;96147.09;;;15.93;41.46
78073;BME280;67281;48.770;11.440;2023-04-15T07:35:33;96138.50;;;15.91;41.29
78073;BME280;67281;48.770;11.440;2023-04-15T07:38:00;96145.44;;;15.92;41.80
78073;BME280;67281;48.770;11.440;2023-04-15T07:40:27;96144.44;;;15.93;41.42
78073;BME280;67281;48.770;11.440;2023-04-15T07:42:57;96146.25;;;15.92;41.12
78073;BME280;67281;48.770;11.440;2023-04-15T07:45:24;96142.97;;;15.90;41.47
78073;BME280;67281;48.770;11.440;2023-04-15T07:47:50;96143.78;;;15.91;41.58
78073;BME280;67281;48.770;11.440;2023-04-15T07:50:17;96140.97;;;15.92;41.42
78073;BME280;67281;48.770;11.440;2023-04-15T07:52:45;96140.16;;;15.92;41.50
78073;BME280;67281;48.770;11.440;2023-04-15T07:55:12;96141.63;;;15.94;41.23
78073;BME280;67281;48.770;11.440;2023-04-15T07:57:38;96145.09;;;15.95;41.78
78073;BME280;67281;48.770;11.440;2023-04-15T08:00:06;96145.91;;;15.95;41.49
78073;BME280;67281;48.770;11.440;2023-04-15T08:02:34;96145.09;;;15.95;41.82
78073;BME280;67281;48.770;11.440;2023-04-15T08:05:03;96150.38;;;15.95;41.23
78073;BME280;67281;48.770;11.440;2023-04-15T08:07:30;96154.84;;;15.94;41.09
78073;BME280;67281;48.770;11.440;2023-04-15T08:09:58;96151.03;;;15.97;41.27
78073;BME280;67281;48.770;11.440;2023-04-15T08:12:24;96149.38;;;15.96;41.63
78073;BME280;67281;48.770;11.440;2023-04-15T08:14:51;96149.38;;;15.96;41.88
78073;BME280;67281;48.770;11.440;2023-04-15T08:17:18;96150.22;;;15.96;41.44
78073;BME280;67281;48.770;11.440;2023-04-15T08:19:46;96148.72;;;15.94;41.62
78073;BME280;67281;48.770;11.440;2023-04-15T08:22:14;96149.56;;;15.94;41.80
78073;BME280;67281;48.770;11.440;2023-04-15T08:24:47;96149.22;;;15.97;41.80
78073;BME280;67281;48.770;11.440;2023-04-15T08:28:18;96151.03;;;15.97;41.36
78073;BME280;67281;48.770;11.440;2023-04-15T08:30:46;96154.34;;;15.99;41.47
78073;BME280;67281;48.770;11.440;2023-04-15T08:33:12;96157.97;;;15.98;41.40
78073;BME280;67281;48.770;11.440;2023-04-15T08:35:39;96156.81;;;16.00;41.41
78073;BME280;67281;48.770;11.440;2023-04-15T08:38:06;96162.91;;;16.01;41.70
78073;BME280;67281;48.770;11.440;2023-04-15T08:40:40;96161.94;;;16.02;41.70
78073;BME280;67281;48.770;11.440;2023-04-15T08:43:10;96167.88;;;16.04;41.40
78073;BME280;67281;48.770;11.440;2023-04-15T08:45:38;96159.94;;;16.04;41.18
78073;BME280;67281;48.770;11.440;2023-04-15T08:48:06;96161.75;;;16.03;41.42
78073;BME280;67281;48.770;11.440;2023-04-15T08:50:35;96169.34;;;16.06;41.06
78073;BME280;67281;48.770;11.440;2023-04-15T08:53:02;96169.84;;;16.10;41.60
78073;BME280;67281;48.770;11.440;2023-04-15T08:55:32;96165.88;;;16.14;41.23
78073;BME280;67281;48.770;11.440;2023-04-15T08:58:02;96168.66;;;16.21;40.99
78073;BME280;67281;48.770;11.440;2023-04-15T09:00:29;96168.50;;;16.22;41.53
78073;BME280;67281;48.770;11.440;2023-04-15T09:02:57;96168.66;;;16.29;40.70
78073;BME280;67281;48.770;11.440;2023-04-15T09:05:24;96171.94;;;16.31;40.87
78073;BME280;67281;48.770;11.440;2023-04-15T09:07:52;96171.94;;;16.31;41.10
78073;BME280;67281;48.770;11.440;2023-04-15T09:10:19;96173.44;;;16.33;40.86
78073;BME280;67281;48.770;11.440;2023-04-15T09:12:45;96171.59;;;16.34;40.88
78073;BME280;67281;48.770;11.440;2023-04-15T09:15:12;96171.13;;;16.30;41.37
78073;BME280;67281;48.770;11.440;2023-04-15T09:17:42;96178.06;;;16.31;41.39
78073;BME280;67281;48.770;11.440;2023-04-15T09:20:11;96169.47;;;16.29;41.40
78073;BME280;67281;48.770;11.440;2023-04-15T09:22:45;96181.00;;;16.36;41.21
78073;BME280;67281;48.770;11.440;2023-04-15T09:27:49;96174.53;;;16.39;41.04
78073;BME280;67281;48.770;11.440;2023-04-15T09:30:16;96163.63;;;16.42;40.80
78073;BME280;67281;48.770;11.440;2023-04-15T09:33:07;96166.91;;;16.44;40.76
78073;BME280;67281;48.770;11.440;2023-04-15T09:35:34;96176.69;;;16.43;41.04
78073;BME280;67281;48.770;11.440;2023-04-15T09:38:07;96163.63;;;16.42;40.84
78073;BME280;67281;48.770;11.440;2023-04-15T09:43:02;96169.72;;;16.42;40.66
78073;BME280;67281;48.770;11.440;2023-04-15T09:45:32;96176.84;;;16.42;41.14
78073;BME280;67281;48.770;11.440;2023-04-15T09:48:15;96176.19;;;16.40;41.46
78073;BME280;67281;48.770;11.440;2023-04-15T09:50:43;96171.91;;;16.39;41.50
78073;BME280;67281;48.770;11.440;2023-04-15T09:53:10;96178.19;;;16.38;41.39
78073;BME280;67281;48.770;11.440;2023-04-15T09:55:37;96181.81;;;16.37;41.32
78073;BME280;67281;48.770;11.440;2023-04-15T09:58:08;96177.34;;;16.37;40.91
78073;BME280;67281;48.770;11.440;2023-04-15T10:00:42;96173.06;;;16.36;41.14
78073;BME280;67281;48.770;11.440;2023-04-15T10:03:09;96180.81;;;16.38;40.94
78073;BME280;67281;48.770;11.440;2023-04-15T10:05:37;96179.66;;;16.40;41.02
78073;BME280;67281;48.770;11.440;2023-04-15T10:08:05;96174.53;;;16.39;40.79
78073;BME280;67281;48.770;11.440;2023-04-15T10:10:32;96176.19;;;16.40;40.76
78073;BME280;67281;48.770;11.440;2023-04-15T10:13:00;96174.53;;;16.39;41.08
78073;BME280;67281;48.770;11.440;2023-04-15T10:15:28;96176.19;;;16.40;41.31
78073;BME280;67281;48.770;11.440;2023-04-15T10:17:57;96181.66;;;16.38;40.87
78073;BME280;67281;48.770;11.440;2023-04-15T10:20:27;96185.13;;;16.39;40.68
78073;BME280;67281;48.770;11.440;2023-04-15T10:22:55;96179.81;;;16.39;41.39
78073;BME280;67281;48.770;11.440;2023-04-15T10:25:22;96180.16;;;16.36;40.77
78073;BME280;67281;48.770;11.440;2023-04-15T10:27:51;96176.91;;;16.34;40.78
78073;BME280;67281;48.770;11.440;2023-04-15T10:30:19;96193.56;;;16.34;41.31
78073;BME280;67281;48.770;11.440;2023-04-15T10:32:46;96181.97;;;16.35;41.18
78073;BME280;67281;48.770;11.440;2023-04-15T10:35:14;96191.56;;;16.36;41.14
78073;BME280;67281;48.770;11.440;2023-04-15T10:37:43;96188.25;;;16.34;41.35
78073;BME280;67281;48.770;11.440;2023-04-15T10:40:26;96187.28;;;16.35;40.81
78073;BME280;67281;48.770;11.440;2023-04-15T10:42:55;96194.88;;;16.38;40.88
78073;BME280;67281;48.770;11.440;2023-04-15T10:45:24;96191.22;;;16.39;40.87
78073;BME280;67281;48.770;11.440;2023-04-15T10:47:57;96189.25;;;16.41;40.66
78073;BME280;67281;48.770;11.440;2023-04-15T10:50:29;96198.16;;;16.40;41.69
78073;BME280;67281;48.770;11.440;2023-04-15T10:52:56;96201.63;;;16.41;41.13
78073;BME280;67281;48.770;11.440;2023-04-15T10:55:31;96198.81;;;16.42;40.77
78073;BME280;67281;48.770;11.440;2023-04-15T10:57:59;96203.28;;;16.42;40.63
78073;BME280;67281;48.770;11.440;2023-04-15T11:00:31;96196.34;;;16.41;41.27
78073;BME280;67281;48.770;11.440;2023-04-15T11:03:04;96194.53;;;16.41;41.14
78073;BME280;67281;48.770;11.440;2023-04-15T11:08:09;96197.34;;;16.40;40.97
78073;BME280;67281;48.770;11.440;2023-04-15T11:15:40;96214.19;;;16.39;41.47
78073;BME280;67281;48.770;11.440;2023-04-15T11:18:21;96213.03;;;16.41;41.32
78073;BME280;67281;48.770;11.440;2023-04-15T11:20:49;96217.00;;;16.46;40.74
78073;BME280;67281;48.770;11.440;2023-04-15T11:23:17;96223.75;;;16.48;41.24
78073;BME280;67281;48.770;11.440;2023-04-15T11:25:45;96220.78;;;16.51;41.27
78073;BME280;67281;48.770;11.440;2023-04-15T11:28:12;96222.25;;;16.54;40.95
78073;BME280;67281;48.770;11.440;2023-04-15T11:30:40;96222.44;;;16.52;41.25
78073;BME280;67281;48.770;11.440;2023-04-15T11:33:08;96212.84;;;16.51;40.97
78073;BME280;67281;48.770;11.440;2023-04-15T11:35:39;96224.41;;;16.50;40.84
78073;BME280;67281;48.770;11.440;2023-04-15T11:38:12;96223.59;;;16.50;41.30
78073;BME280;67281;48.770;11.440;2023-04-15T11:40:42;96222.94;;;16.48;40.72
78073;BME280;67281;48.770;11.440;2023-04-15T11:43:14;96232.69;;;16.47;41.48
78073;BME280;67281;48.770;11.440;2023-04-15T11:48:14;96234.50;;;16.47;40.93
78073;BME280;67281;48.770;11.440;2023-04-15T11:50:41;96231.69;;;16.48;41.03
78073;BME280;67281;48.770;11.440;2023-04-15T11:53:10;96242.59;;;16.53;40.99
78073;BME280;67281;48.770;11.440;2023-04-15T11:58:18;96251.00;;;16.57;41.01
78073;BME280;67281;48.770;11.440;2023-04-15T12:00:59;96261.59;;;16.57;41.00
78073;BME280;67281;48.770;11.440;2023-04-15T12:03:32;96268.69;;;16.56;41.00
78073;BME280;67281;48.770;11.440;2023-04-15T12:06:20;96270.34;;;16.57;40.97
78073;BME280;67281;48.770;11.440;2023-04-15T12:13:59;96295.47;;;16.61;41.00
78073;BME280;67281;48.770;11.440;2023-04-15T12:16:29;96286.06;;;16.59;41.06
78073;BME280;67281;48.770;11.440;2023-04-15T12:18:57;96290.34;;;16.60;40.71
78073;BME280;67281;48.770;11.440;2023-04-15T12:21:27;96298.28;;;16.60;41.18
78073;BME280;67281;48.770;11.440;2023-04-15T12:23:56;96292.34;;;16.58;41.36
78073;BME280;67281;48.770;11.440;2023-04-15T12:26:32;96305.41;;;16.59;40.85
78073;BME280;67281;48.770;11.440;2023-04-15T12:29:09;96306.38;;;16.58;41.20
78073;BME280;67281;48.770;11.440;2023-04-15T12:31:46;96305.56;;;16.58;41.57
78073;BME280;67281;48.770;11.440;2023-04-15T12:34:14;96307.38;;;16.57;41.30
78073;BME280;67281;48.770;11.440;2023-04-15T12:36:41;96314.50;;;16.57;41.41
78073;BME280;67281;48.770;11.440;2023-04-15T12:39:09;96306.56;;;16.57;41.75
78073;BME280;67281;48.770;11.440;2023-04-15T12:41:36;96318.13;;;16.56;41.29
78073;BME280;67281;48.770;11.440;2023-04-15T12:44:02;96323.59;;;16.54;41.53
78073;BME280;67281;48.770;11.440;2023-04-15T12:46:30;96316.47;;;16.55;41.16
78073;BME280;67281;48.770;11.440;2023-04-15T12:48:56;96324.56;;;16.53;41.62
78073;BME280;67281;48.770;11.440;2023-04-15T12:51:24;96324.56;;;16.53;41.95
78073;BME280;67281;48.770;11.440;2023-04-15T12:53:53;96332.50;;;16.53;41.55
78073;BME280;67281;48.770;11.440;2023-04-15T12:56:20;96335.00;;;16.55;41.72
78073;BME280;67281;48.770;11.440;2023-04-15T12:58:46;96325.41;;;16.54;41.94
78073;BME280;67281;48.770;11.440;2023-04-15T13:01:13;96330.69;;;16.54;41.85
78073;BME280;67281;48.770;11.440;2023-04-15T13:03:40;96331.84;;;16.51;41.26
78073;BME280;67281;48.770;11.440;2023-04-15T13:06:07;96339.94;;;16.50;41.64
78073;BME280;67281;48.770;11.440;2023-04-15T13:08:34;96344.06;;;16.52;41.88
78073;BME280;67281;48.770;11.440;2023-04-15T13:11:05;96346.56;;;16.54;41.84
78073;BME280;67281;48.770;11.440;2023-04-15T13:13:32;96340.94;;;16.57;41.56
78073;BME280;67281;48.770;11.440;2023-04-15T13:15:59;96348.53;;;16.60;41.76
78073;BME280;67281;48.770;11.440;2023-04-15T13:18:26;96348.19;;;16.63;41.82